Terminal Aerodrome Forecast
Issued by NWS

Current Version | Previous Version | Graphics & Text | Print | Product List | Glossary On
Versions: 1 2 3 4 5 6 7 8 9 10 11 12 13 14 15 16 17 18 19
083
FTUS41 KILN 270336 AAA
TAFLUK
TAF AMD
KLUK 270336Z 2704/2724 16008KT P6SM BKN250
     FM270600 16008KT P6SM BKN250 WS020/20045KT
     FM270900 20012KT P6SM VCSH SCT035 BKN150 WS020/20045KT
      TEMPO 2712/2714 -SHRA BKN022
     FM271400 21015KT P6SM BKN025
     FM271700 24015G22KT P6SM BKN035
     FM272200 25010KT P6SM SCT050=

USA.gov is the U.S. government's official web portal to all federal, state and local government web resources and services.